sensor_id;sensor_type;location;lat;lon;timestamp;pressure;altitude;pressure_sealevel;temperature;humidity
55486;BME280;71262;-25.924;28.194;2023-11-22T00:02:16;85088.89;;;18.91;50.43
55486;BME280;71262;-25.924;28.194;2023-11-22T00:04:41;85083.17;;;19.01;50.39
55486;BME280;71262;-25.924;28.194;2023-11-22T00:07:06;85080.59;;;18.81;50.70
55486;BME280;71262;-25.924;28.194;2023-11-22T00:09:32;85077.93;;;18.85;50.82
55486;BME280;71262;-25.924;28.194;2023-11-22T00:11:57;85076.16;;;18.93;50.73
55486;BME280;71262;-25.924;28.194;2023-11-22T00:14:22;85074.27;;;18.65;50.73
55486;BME280;71262;-25.924;28.194;2023-11-22T00:16:47;85076.62;;;18.91;50.41
55486;BME280;71262;-25.924;28.194;2023-11-22T00:19:12;85078.00;;;18.96;50.55
55486;BME280;71262;-25.924;28.194;2023-11-22T00:21:38;85080.04;;;18.83;50.93
55486;BME280;71262;-25.924;28.194;2023-11-22T00:24:03;85080.31;;;18.87;50.97
55486;BME280;71262;-25.924;28.194;2023-11-22T00:26:28;85083.79;;;18.65;50.96
55486;BME280;71262;-25.924;28.194;2023-11-22T00:28:53;85088.41;;;18.74;50.87
55486;BME280;71262;-25.924;28.194;2023-11-22T00:31:18;85091.43;;;18.97;50.81
55486;BME280;71262;-25.924;28.194;2023-11-22T00:33:43;85094.64;;;18.73;51.30
55486;BME280;71262;-25.924;28.194;2023-11-22T00:36:08;85093.83;;;18.80;51.04
55486;BME280;71262;-25.924;28.194;2023-11-22T00:38:33;85098.82;;;18.77;51.08
55486;BME280;71262;-25.924;28.194;2023-11-22T00:41:00;85101.13;;;18.78;51.11
55486;BME280;71262;-25.924;28.194;2023-11-22T00:43:24;85107.74;;;18.73;51.09
55486;BME280;71262;-25.924;28.194;2023-11-22T00:45:49;85107.60;;;18.80;50.92
55486;BME280;71262;-25.924;28.194;2023-11-22T00:48:14;85108.41;;;18.90;50.71
55486;BME280;71262;-25.924;28.194;2023-11-22T00:50:39;85109.98;;;18.61;50.79
55486;BME280;71262;-25.924;28.194;2023-11-22T00:53:04;85112.97;;;18.80;50.86
55486;BME280;71262;-25.924;28.194;2023-11-22T00:55:29;85116.00;;;18.80;50.86
55486;BME280;71262;-25.924;28.194;2023-11-22T00:57:54;85116.88;;;18.54;50.81
55486;BME280;71262;-25.924;28.194;2023-11-22T01:00:19;85116.46;;;18.82;50.65
55486;BME280;71262;-25.924;28.194;2023-11-22T01:02:45;85119.67;;;18.65;51.04
55486;BME280;71262;-25.924;28.194;2023-11-22T01:05:10;85119.43;;;18.57;50.84
55486;BME280;71262;-25.924;28.194;2023-11-22T01:07:35;85123.99;;;18.88;50.80
55486;BME280;71262;-25.924;28.194;2023-11-22T01:10:01;85123.21;;;19.18;50.72
55486;BME280;71262;-25.924;28.194;2023-11-22T01:12:26;85122.20;;;18.82;50.86
55486;BME280;71262;-25.924;28.194;2023-11-22T01:14:51;85122.55;;;18.65;51.18
55486;BME280;71262;-25.924;28.194;2023-11-22T01:17:17;85118.74;;;18.73;50.99
55486;BME280;71262;-25.924;28.194;2023-11-22T01:19:42;85116.13;;;18.64;51.21
55486;BME280;71262;-25.924;28.194;2023-11-22T01:22:07;85117.16;;;18.57;51.33
55486;BME280;71262;-25.924;28.194;2023-11-22T01:24:32;85115.07;;;18.68;51.24
55486;BME280;71262;-25.924;28.194;2023-11-22T01:26:57;85116.02;;;18.55;51.06
55486;BME280;71262;-25.924;28.194;2023-11-22T01:29:22;85119.35;;;18.73;50.62
55486;BME280;71262;-25.924;28.194;2023-11-22T01:31:47;85119.42;;;18.96;50.43
55486;BME280;71262;-25.924;28.194;2023-11-22T01:34:13;85121.10;;;18.66;50.59
55486;BME280;71262;-25.924;28.194;2023-11-22T01:36:42;85125.85;;;18.69;50.53
55486;BME280;71262;-25.924;28.194;2023-11-22T01:39:03;85128.96;;;18.56;50.59
55486;BME280;71262;-25.924;28.194;2023-11-22T01:41:28;85131.73;;;18.79;50.50
55486;BME280;71262;-25.924;28.194;2023-11-22T01:43:53;85131.84;;;18.79;50.90
55486;BME280;71262;-25.924;28.194;2023-11-22T01:46:24;85132.19;;;18.63;50.74
55486;BME280;71262;-25.924;28.194;2023-11-22T01:48:43;85138.08;;;18.75;50.88
55486;BME280;71262;-25.924;28.194;2023-11-22T01:51:09;85138.90;;;18.47;50.52
55486;BME280;71262;-25.924;28.194;2023-11-22T01:53:34;85141.33;;;18.74;50.37
55486;BME280;71262;-25.924;28.194;2023-11-22T01:55:59;85143.35;;;18.65;50.49
55486;BME280;71262;-25.924;28.194;2023-11-22T01:58:24;85145.18;;;18.45;50.86
55486;BME280;71262;-25.924;28.194;2023-11-22T02:00:51;85146.18;;;18.61;50.99
55486;BME280;71262;-25.924;28.194;2023-11-22T02:03:15;85146.84;;;18.38;51.08
55486;BME280;71262;-25.924;28.194;2023-11-22T02:05:41;85150.74;;;18.97;51.47
55486;BME280;71262;-25.924;28.194;2023-11-22T02:08:05;85151.70;;;19.00;53.54
55486;BME280;71262;-25.924;28.194;2023-11-22T02:10:31;85150.56;;;19.04;50.05
55486;BME280;71262;-25.924;28.194;2023-11-22T02:12:56;85152.90;;;18.53;49.43
55486;BME280;71262;-25.924;28.194;2023-11-22T02:15:21;85151.86;;;18.77;50.30
55486;BME280;71262;-25.924;28.194;2023-11-22T02:17:46;85151.08;;;18.51;50.36
55486;BME280;71262;-25.924;28.194;2023-11-22T02:20:11;85150.32;;;18.89;50.21
55486;BME280;71262;-25.924;28.194;2023-11-22T02:22:44;85149.94;;;18.50;50.53
55486;BME280;71262;-25.924;28.194;2023-11-22T02:25:02;85154.04;;;18.72;50.58
55486;BME280;71262;-25.924;28.194;2023-11-22T02:27:28;85155.50;;;18.59;50.37
55486;BME280;71262;-25.924;28.194;2023-11-22T02:29:53;85159.55;;;18.85;50.41
55486;BME280;71262;-25.924;28.194;2023-11-22T02:32:18;85160.60;;;18.27;50.55
55486;BME280;71262;-25.924;28.194;2023-11-22T02:34:44;85163.80;;;18.61;50.38
55486;BME280;71262;-25.924;28.194;2023-11-22T02:37:10;85166.48;;;18.32;50.95
55486;BME280;71262;-25.924;28.194;2023-11-22T02:39:44;85171.21;;;18.68;50.73
55486;BME280;71262;-25.924;28.194;2023-11-22T02:42:02;85171.94;;;18.79;50.56
55486;BME280;71262;-25.924;28.194;2023-11-22T02:44:26;85172.34;;;18.79;50.48
55486;BME280;71262;-25.924;28.194;2023-11-22T02:46:52;85175.33;;;18.56;50.45
55486;BME280;71262;-25.924;28.194;2023-11-22T02:49:17;85174.93;;;18.75;50.60
55486;BME280;71262;-25.924;28.194;2023-11-22T02:51:43;85179.57;;;18.42;50.71
55486;BME280;71262;-25.924;28.194;2023-11-22T02:54:08;85182.33;;;18.44;50.65
55486;BME280;71262;-25.924;28.194;2023-11-22T02:56:34;85184.19;;;18.38;50.70
55486;BME280;71262;-25.924;28.194;2023-11-22T02:58:59;85190.35;;;18.60;50.73
55486;BME280;71262;-25.924;28.194;2023-11-22T03:01:25;85195.79;;;18.53;50.93
55486;BME280;71262;-25.924;28.194;2023-11-22T03:03:50;85200.02;;;18.57;50.87
55486;BME280;71262;-25.924;28.194;2023-11-22T03:06:16;85202.59;;;18.31;50.76
55486;BME280;71262;-25.924;28.194;2023-11-22T03:08:41;85204.92;;;18.29;50.77
55486;BME280;71262;-25.924;28.194;2023-11-22T03:11:07;85205.78;;;18.62;50.57
55486;BME280;71262;-25.924;28.194;2023-11-22T03:13:32;85209.82;;;18.44;50.46
55486;BME280;71262;-25.924;28.194;2023-11-22T03:15:58;85211.55;;;18.37;50.55
55486;BME280;71262;-25.924;28.194;2023-11-22T03:18:24;85212.46;;;18.60;50.59
55486;BME280;71262;-25.924;28.194;2023-11-22T03:20:50;85215.06;;;18.45;50.86
55486;BME280;71262;-25.924;28.194;2023-11-22T03:23:15;85216.16;;;18.56;50.64
55486;BME280;71262;-25.924;28.194;2023-11-22T03:25:40;85221.42;;;18.63;50.40
55486;BME280;71262;-25.924;28.194;2023-11-22T03:28:05;85226.15;;;18.49;50.31
55486;BME280;71262;-25.924;28.194;2023-11-22T03:30:31;85230.64;;;18.60;50.54
55486;BME280;71262;-25.924;28.194;2023-11-22T03:32:56;85236.81;;;18.44;50.36
55486;BME280;71262;-25.924;28.194;2023-11-22T03:35:21;85239.73;;;18.43;50.29
55486;BME280;71262;-25.924;28.194;2023-11-22T03:37:47;85237.92;;;18.63;50.41
55486;BME280;71262;-25.924;28.194;2023-11-22T03:40:12;85244.24;;;18.49;50.27
55486;BME280;71262;-25.924;28.194;2023-11-22T03:42:38;85241.96;;;18.58;50.70
55486;BME280;71262;-25.924;28.194;2023-11-22T03:45:03;85245.16;;;18.65;50.72
55486;BME280;71262;-25.924;28.194;2023-11-22T03:47:29;85253.64;;;18.52;51.13
55486;BME280;71262;-25.924;28.194;2023-11-22T03:49:54;85256.51;;;18.52;50.91
55486;BME280;71262;-25.924;28.194;2023-11-22T03:52:20;85258.54;;;18.44;51.46
55486;BME280;71262;-25.924;28.194;2023-11-22T03:54:45;85263.98;;;18.45;51.78
55486;BME280;71262;-25.924;28.194;2023-11-22T03:57:11;85267.44;;;18.37;52.23
55486;BME280;71262;-25.924;28.194;2023-11-22T03:59:37;85264.97;;;18.41;51.75
55486;BME280;71262;-25.924;28.194;2023-11-22T04:02:03;85266.92;;;18.71;51.84
55486;BME280;71262;-25.924;28.194;2023-11-22T04:04:28;85269.77;;;18.69;51.81
55486;BME280;71262;-25.924;28.194;2023-11-22T04:06:54;85274.09;;;18.78;51.76
55486;BME280;71262;-25.924;28.194;2023-11-22T04:09:19;85282.06;;;18.53;51.94
55486;BME280;71262;-25.924;28.194;2023-11-22T04:11:45;85285.34;;;18.80;51.90
55486;BME280;71262;-25.924;28.194;2023-11-22T04:14:11;85293.62;;;18.42;52.42
55486;BME280;71262;-25.924;28.194;2023-11-22T04:16:36;85298.49;;;18.93;51.14
55486;BME280;71262;-25.924;28.194;2023-11-22T04:19:02;85298.17;;;18.69;51.95
55486;BME280;71262;-25.924;28.194;2023-11-22T04:21:27;85301.84;;;18.54;52.22
55486;BME280;71262;-25.924;28.194;2023-11-22T04:23:52;85305.06;;;18.56;52.04
55486;BME280;71262;-25.924;28.194;2023-11-22T04:26:18;85301.99;;;18.60;52.20
55486;BME280;71262;-25.924;28.194;2023-11-22T04:28:44;85301.42;;;18.93;54.50
55486;BME280;71262;-25.924;28.194;2023-11-22T04:31:09;85303.49;;;19.13;56.50
55486;BME280;71262;-25.924;28.194;2023-11-22T04:33:35;85309.81;;;19.35;57.57
55486;BME280;71262;-25.924;28.194;2023-11-22T04:36:00;85316.27;;;19.32;58.85
55486;BME280;71262;-25.924;28.194;2023-11-22T04:38:26;85319.96;;;19.30;60.01
55486;BME280;71262;-25.924;28.194;2023-11-22T04:40:52;85319.21;;;19.26;60.98
55486;BME280;71262;-25.924;28.194;2023-11-22T04:43:16;85324.29;;;19.02;61.05
55486;BME280;71262;-25.924;28.194;2023-11-22T04:45:41;85329.80;;;19.61;61.52
55486;BME280;71262;-25.924;28.194;2023-11-22T04:48:07;85333.22;;;19.10;62.10
55486;BME280;71262;-25.924;28.194;2023-11-22T04:50:32;85336.39;;;19.65;62.36
55486;BME280;71262;-25.924;28.194;2023-11-22T04:52:58;85340.26;;;19.34;62.19
55486;BME280;71262;-25.924;28.194;2023-11-22T04:55:23;85335.42;;;19.45;57.64
55486;BME280;71262;-25.924;28.194;2023-11-22T04:57:48;85343.25;;;19.39;58.12
55486;BME280;71262;-25.924;28.194;2023-11-22T05:00:14;85344.09;;;19.40;59.89
55486;BME280;71262;-25.924;28.194;2023-11-22T05:02:39;85344.98;;;19.55;60.87
55486;BME280;71262;-25.924;28.194;2023-11-22T05:05:05;85349.31;;;19.27;61.23
55486;BME280;71262;-25.924;28.194;2023-11-22T05:07:29;85349.82;;;19.69;58.54
55486;BME280;71262;-25.924;28.194;2023-11-22T05:09:55;85352.67;;;19.35;55.54
55486;BME280;71262;-25.924;28.194;2023-11-22T05:12:20;85355.53;;;19.27;58.89
55486;BME280;71262;-25.924;28.194;2023-11-22T05:14:45;85359.75;;;19.49;59.59
55486;BME280;71262;-25.924;28.194;2023-11-22T05:17:10;85360.12;;;19.34;59.89
55486;BME280;71262;-25.924;28.194;2023-11-22T05:19:35;85364.87;;;19.47;55.05
55486;BME280;71262;-25.924;28.194;2023-11-22T05:22:01;85362.03;;;19.44;54.68
55486;BME280;71262;-25.924;28.194;2023-11-22T05:24:27;85367.16;;;19.04;55.13
55486;BME280;71262;-25.924;28.194;2023-11-22T05:26:51;85367.47;;;19.53;55.10
55486;BME280;71262;-25.924;28.194;2023-11-22T05:29:16;85372.03;;;19.20;55.29
55486;BME280;71262;-25.924;28.194;2023-11-22T05:31:41;85375.74;;;19.15;55.34
55486;BME280;71262;-25.924;28.194;2023-11-22T05:34:07;85377.05;;;19.17;55.26
55486;BME280;71262;-25.924;28.194;2023-11-22T05:36:32;85382.43;;;19.17;55.25
55486;BME280;71262;-25.924;28.194;2023-11-22T05:38:57;85383.10;;;19.24;55.12
55486;BME280;71262;-25.924;28.194;2023-11-22T05:41:23;85386.23;;;19.17;55.27
55486;BME280;71262;-25.924;28.194;2023-11-22T05:43:48;85387.89;;;19.16;55.38
55486;BME280;71262;-25.924;28.194;2023-11-22T05:46:13;85392.97;;;19.25;55.69
55486;BME280;71262;-25.924;28.194;2023-11-22T05:48:38;85393.90;;;19.02;55.42
55486;BME280;71262;-25.924;28.194;2023-11-22T05:51:04;85393.13;;;19.09;55.34
55486;BME280;71262;-25.924;28.194;2023-11-22T05:53:29;85398.50;;;19.09;55.41
55486;BME280;71262;-25.924;28.194;2023-11-22T05:55:54;85399.78;;;19.44;55.26
55486;BME280;71262;-25.924;28.194;2023-11-22T05:58:19;85399.94;;;19.42;55.41
55486;BME280;71262;-25.924;28.194;2023-11-22T06:00:45;85398.49;;;19.39;55.57
55486;BME280;71262;-25.924;28.194;2023-11-22T06:03:11;85394.70;;;19.34;55.32
55486;BME280;71262;-25.924;28.194;2023-11-22T06:05:35;85398.62;;;19.18;55.17
55486;BME280;71262;-25.924;28.194;2023-11-22T06:08:00;85397.16;;;19.40;55.31
55486;BME280;71262;-25.924;28.194;2023-11-22T06:10:25;85397.52;;;19.80;54.98
55486;BME280;71262;-25.924;28.194;2023-11-22T06:12:52;85396.69;;;19.41;54.72
55486;BME280;71262;-25.924;28.194;2023-11-22T06:15:15;85395.23;;;19.71;54.67
55486;BME280;71262;-25.924;28.194;2023-11-22T06:17:41;85394.42;;;19.95;54.68
55486;BME280;71262;-25.924;28.194;2023-11-22T06:20:07;85394.17;;;19.51;54.57
55486;BME280;71262;-25.924;28.194;2023-11-22T06:22:31;85397.01;;;19.57;54.55
55486;BME280;71262;-25.924;28.194;2023-11-22T06:24:56;85400.94;;;19.59;54.55
55486;BME280;71262;-25.924;28.194;2023-11-22T06:27:21;85398.97;;;19.74;54.34
55486;BME280;71262;-25.924;28.194;2023-11-22T06:29:46;85404.29;;;19.68;54.52
55486;BME280;71262;-25.924;28.194;2023-11-22T06:32:12;85402.39;;;19.67;54.63
55486;BME280;71262;-25.924;28.194;2023-11-22T06:34:37;85403.82;;;19.72;54.61
55486;BME280;71262;-25.924;28.194;2023-11-22T06:37:02;85403.61;;;19.70;54.70
55486;BME280;71262;-25.924;28.194;2023-11-22T06:39:27;85405.66;;;20.07;54.55
55486;BME280;71262;-25.924;28.194;2023-11-22T06:41:52;85403.65;;;19.82;54.52
55486;BME280;71262;-25.924;28.194;2023-11-22T06:44:17;85401.68;;;19.88;54.40
55486;BME280;71262;-25.924;28.194;2023-11-22T06:46:42;85402.50;;;19.87;54.40
55486;BME280;71262;-25.924;28.194;2023-11-22T06:49:07;85403.46;;;19.92;54.31
55486;BME280;71262;-25.924;28.194;2023-11-22T06:51:32;85408.86;;;19.99;54.22
55486;BME280;71262;-25.924;28.194;2023-11-22T06:53:57;85409.86;;;19.94;54.33
55486;BME280;71262;-25.924;28.194;2023-11-22T06:56:22;85412.22;;;19.94;54.33
55486;BME280;71262;-25.924;28.194;2023-11-22T06:58:47;85410.40;;;20.04;54.14
55486;BME280;71262;-25.924;28.194;2023-11-22T07:01:12;85411.90;;;20.07;54.12
55486;BME280;71262;-25.924;28.194;2023-11-22T07:03:37;85412.28;;;20.16;53.99
55486;BME280;71262;-25.924;28.194;2023-11-22T07:06:02;85414.98;;;20.21;53.97
55486;BME280;71262;-25.924;28.194;2023-11-22T07:08:27;85414.96;;;20.14;53.28
55486;BME280;71262;-25.924;28.194;2023-11-22T07:10:53;85415.93;;;20.18;53.64
55486;BME280;71262;-25.924;28.194;2023-11-22T07:13:18;85412.46;;;20.18;53.81
55486;BME280;71262;-25.924;28.194;2023-11-22T07:15:42;85413.30;;;20.24;53.72
55486;BME280;71262;-25.924;28.194;2023-11-22T07:18:08;85412.56;;;20.19;52.72
55486;BME280;71262;-25.924;28.194;2023-11-22T07:20:33;85409.05;;;20.09;53.62
55486;BME280;71262;-25.924;28.194;2023-11-22T07:22:58;85410.03;;;20.11;53.83
55486;BME280;71262;-25.924;28.194;2023-11-22T07:25:23;85413.40;;;20.15;53.93
55486;BME280;71262;-25.924;28.194;2023-11-22T07:27:48;85417.08;;;20.19;53.70
55486;BME280;71262;-25.924;28.194;2023-11-22T07:30:14;85418.54;;;20.09;53.11
55486;BME280;71262;-25.924;28.194;2023-11-22T07:32:39;85423.07;;;20.17;53.60
55486;BME280;71262;-25.924;28.194;2023-11-22T07:35:05;85422.60;;;20.22;53.70
55486;BME280;71262;-25.924;28.194;2023-11-22T07:37:29;85423.53;;;20.17;53.87
55486;BME280;71262;-25.924;28.194;2023-11-22T07:39:54;85429.31;;;20.24;53.94
55486;BME280;71262;-25.924;28.194;2023-11-22T07:42:19;85425.37;;;20.30;52.48
55486;BME280;71262;-25.924;28.194;2023-11-22T07:44:44;85426.76;;;20.24;53.45
55486;BME280;71262;-25.924;28.194;2023-11-22T07:47:09;85427.15;;;20.49;53.93
55486;BME280;71262;-25.924;28.194;2023-11-22T07:49:35;85424.61;;;20.19;53.58
55486;BME280;71262;-25.924;28.194;2023-11-22T07:52:00;85422.12;;;20.14;53.88
55486;BME280;71262;-25.924;28.194;2023-11-22T07:54:25;85427.36;;;19.96;53.82
55486;BME280;71262;-25.924;28.194;2023-11-22T07:56:50;85423.87;;;20.30;53.52
55486;BME280;71262;-25.924;28.194;2023-11-22T07:59:16;85424.16;;;20.34;53.47
55486;BME280;71262;-25.924;28.194;2023-11-22T08:01:43;85426.51;;;20.34;52.55
55486;BME280;71262;-25.924;28.194;2023-11-22T08:04:06;85424.68;;;20.38;52.92
55486;BME280;71262;-25.924;28.194;2023-11-22T08:06:32;85425.92;;;20.44;52.86
55486;BME280;71262;-25.924;28.194;2023-11-22T08:08:57;85423.60;;;20.48;52.87
55486;BME280;71262;-25.924;28.194;2023-11-22T08:11:22;85417.17;;;20.50;52.76
55486;BME280;71262;-25.924;28.194;2023-11-22T08:13:47;85419.13;;;20.50;52.66
55486;BME280;71262;-25.924;28.194;2023-11-22T08:16:12;85415.73;;;20.43;52.75
55486;BME280;71262;-25.924;28.194;2023-11-22T08:18:38;85412.67;;;20.54;52.59
55486;BME280;71262;-25.924;28.194;2023-11-22T08:21:03;85410.24;;;20.32;52.20
55486;BME280;71262;-25.924;28.194;2023-11-22T08:23:28;85408.34;;;20.59;52.31
55486;BME280;71262;-25.924;28.194;2023-11-22T08:25:53;85405.79;;;20.66;52.71
55486;BME280;71262;-25.924;28.194;2023-11-22T08:28:20;85402.05;;;20.31;53.09
55486;BME280;71262;-25.924;28.194;2023-11-22T08:30:44;85404.27;;;20.54;53.16
55486;BME280;71262;-25.924;28.194;2023-11-22T08:33:09;85405.54;;;20.39;53.12
55486;BME280;71262;-25.924;28.194;2023-11-22T08:35:34;85404.59;;;20.58;53.24
55486;BME280;71262;-25.924;28.194;2023-11-22T08:37:59;85398.05;;;20.51;53.39
55486;BME280;71262;-25.924;28.194;2023-11-22T08:40:24;85399.48;;;20.30;53.42
55486;BME280;71262;-25.924;28.194;2023-11-22T08:42:49;85400.62;;;20.53;53.47
55486;BME280;71262;-25.924;28.194;2023-11-22T08:45:15;85398.33;;;20.45;53.70
55486;BME280;71262;-25.924;28.194;2023-11-22T08:47:40;85398.91;;;20.45;53.66
55486;BME280;71262;-25.924;28.194;2023-11-22T08:50:06;85398.08;;;20.26;53.54
55486;BME280;71262;-25.924;28.194;2023-11-22T08:52:30;85394.42;;;20.42;53.54
55486;BME280;71262;-25.924;28.194;2023-11-22T08:54:55;85393.01;;;20.44;53.44
55486;BME280;71262;-25.924;28.194;2023-11-22T08:57:20;85389.02;;;20.47;53.29
55486;BME280;71262;-25.924;28.194;2023-11-22T08:59:46;85384.59;;;20.41;53.29
55486;BME280;71262;-25.924;28.194;2023-11-22T09:02:11;85382.41;;;20.30;53.35
55486;BME280;71262;-25.924;28.194;2023-11-22T09:04:36;85379.66;;;20.41;53.06
55486;BME280;71262;-25.924;28.194;2023-11-22T09:07:01;85377.38;;;20.42;52.90
55486;BME280;71262;-25.924;28.194;2023-11-22T09:09:26;85376.00;;;20.21;52.70
55486;BME280;71262;-25.924;28.194;2023-11-22T09:11:52;85370.07;;;20.35;52.72
55486;BME280;71262;-25.924;28.194;2023-11-22T09:14:16;85371.63;;;20.29;52.71
55486;BME280;71262;-25.924;28.194;2023-11-22T09:16:41;85375.92;;;20.26;52.62
55486;BME280;71262;-25.924;28.194;2023-11-22T09:19:06;85375.17;;;20.14;52.64
55486;BME280;71262;-25.924;28.194;2023-11-22T09:21:31;85371.04;;;20.23;52.83
55486;BME280;71262;-25.924;28.194;2023-11-22T09:23:56;85372.00;;;20.11;52.98
55486;BME280;71262;-25.924;28.194;2023-11-22T09:26:21;85371.48;;;20.16;52.82
55486;BME280;71262;-25.924;28.194;2023-11-22T09:28:46;85370.81;;;20.13;52.75
55486;BME280;71262;-25.924;28.194;2023-11-22T09:31:11;85367.71;;;20.02;52.83
55486;BME280;71262;-25.924;28.194;2023-11-22T09:33:36;85362.34;;;19.68;52.94
55486;BME280;71262;-25.924;28.194;2023-11-22T09:36:01;85360.54;;;19.75;52.75
55486;BME280;71262;-25.924;28.194;2023-11-22T09:38:26;85360.28;;;19.82;52.45
55486;BME280;71262;-25.924;28.194;2023-11-22T09:40:52;85358.33;;;20.46;52.15
55486;BME280;71262;-25.924;28.194;2023-11-22T09:43:18;85351.42;;;20.28;52.38
55486;BME280;71262;-25.924;28.194;2023-11-22T09:45:42;85349.66;;;19.84;52.30
55486;BME280;71262;-25.924;28.194;2023-11-22T09:48:14;85348.17;;;20.15;52.46
55486;BME280;71262;-25.924;28.194;2023-11-22T09:50:39;85343.82;;;20.25;52.26
55486;BME280;71262;-25.924;28.194;2023-11-22T09:53:01;85343.76;;;20.10;52.42
55486;BME280;71262;-25.924;28.194;2023-11-22T09:55:25;85340.83;;;20.18;52.28
55486;BME280;71262;-25.924;28.194;2023-11-22T09:57:47;85339.32;;;19.74;52.57
55486;BME280;71262;-25.924;28.194;2023-11-22T10:00:13;85336.64;;;19.71;52.10
55486;BME280;71262;-25.924;28.194;2023-11-22T10:02:37;85337.67;;;19.83;51.36
55486;BME280;71262;-25.924;28.194;2023-11-22T10:05:04;85334.78;;;20.64;51.05
55486;BME280;71262;-25.924;28.194;2023-11-22T10:07:27;85333.13;;;20.43;49.72
55486;BME280;71262;-25.924;28.194;2023-11-22T10:09:52;85331.03;;;19.88;48.49
55486;BME280;71262;-25.924;28.194;2023-11-22T10:12:20;85328.77;;;19.88;50.57
55486;BME280;71262;-25.924;28.194;2023-11-22T10:14:42;85324.86;;;19.87;51.81
55486;BME280;71262;-25.924;28.194;2023-11-22T10:17:12;85323.98;;;20.04;51.74
55486;BME280;71262;-25.924;28.194;2023-11-22T10:19:33;85322.81;;;19.97;52.14
55486;BME280;71262;-25.924;28.194;2023-11-22T10:22:04;85320.00;;;19.63;52.51
55486;BME280;71262;-25.924;28.194;2023-11-22T10:24:23;85314.96;;;19.96;52.35
55486;BME280;71262;-25.924;28.194;2023-11-22T10:26:48;85308.22;;;19.87;52.40
55486;BME280;71262;-25.924;28.194;2023-11-22T10:29:13;85306.41;;;19.44;52.18
55486;BME280;71262;-25.924;28.194;2023-11-22T10:31:39;85310.36;;;19.79;51.94
55486;BME280;71262;-25.924;28.194;2023-11-22T10:34:03;85311.71;;;19.72;51.97
55486;BME280;71262;-25.924;28.194;2023-11-22T10:36:28;85308.67;;;19.96;51.39
55486;BME280;71262;-25.924;28.194;2023-11-22T10:38:54;85303.96;;;20.27;51.10
55486;BME280;71262;-25.924;28.194;2023-11-22T10:41:21;85299.80;;;20.28;51.40
55486;BME280;71262;-25.924;28.194;2023-11-22T10:43:45;85298.51;;;20.16;51.53
55486;BME280;71262;-25.924;28.194;2023-11-22T10:46:09;85293.73;;;20.06;51.59
55486;BME280;71262;-25.924;28.194;2023-11-22T10:48:34;85296.53;;;19.88;51.78
55486;BME280;71262;-25.924;28.194;2023-11-22T10:51:01;85290.98;;;19.49;51.56
55486;BME280;71262;-25.924;28.194;2023-11-22T10:53:30;85289.49;;;19.50;51.42
55486;BME280;71262;-25.924;28.194;2023-11-22T10:55:49;85287.35;;;19.98;51.34
55486;BME280;71262;-25.924;28.194;2023-11-22T10:58:15;85281.71;;;20.08;51.10
55486;BME280;71262;-25.924;28.194;2023-11-22T11:00:41;85279.82;;;19.64;51.31
55486;BME280;71262;-25.924;28.194;2023-11-22T11:03:08;85276.78;;;20.06;51.30
55486;BME280;71262;-25.924;28.194;2023-11-22T11:05:31;85274.43;;;19.67;51.17
55486;BME280;71262;-25.924;28.194;2023-11-22T11:07:57;85268.47;;;19.79;51.29
55486;BME280;71262;-25.924;28.194;2023-11-22T11:10:21;85262.18;;;19.65;50.98
55486;BME280;71262;-25.924;28.194;2023-11-22T11:12:46;85260.77;;;19.79;51.01
55486;BME280;71262;-25.924;28.194;2023-11-22T11:15:10;85260.48;;;19.88;50.78
55486;BME280;71262;-25.924;28.194;2023-11-22T11:17:35;85255.94;;;19.80;50.44
55486;BME280;71262;-25.924;28.194;2023-11-22T11:20:00;85252.94;;;19.58;50.27
55486;BME280;71262;-25.924;28.194;2023-11-22T11:22:25;85253.64;;;19.85;50.57
55486;BME280;71262;-25.924;28.194;2023-11-22T11:27:16;85243.19;;;19.86;50.36
55486;BME280;71262;-25.924;28.194;2023-11-22T11:29:40;85242.04;;;19.66;50.26
55486;BME280;71262;-25.924;28.194;2023-11-22T11:32:05;85243.51;;;19.83;50.25
55486;BME280;71262;-25.924;28.194;2023-11-22T11:34:30;85237.35;;;19.91;50.04
55486;BME280;71262;-25.924;28.194;2023-11-22T11:36:55;85236.32;;;19.73;49.95
55486;BME280;71262;-25.924;28.194;2023-11-22T11:39:27;85231.19;;;19.75;49.88
55486;BME280;71262;-25.924;28.194;2023-11-22T11:41:45;85234.04;;;19.67;49.91
55486;BME280;71262;-25.924;28.194;2023-11-22T11:44:10;85225.44;;;19.55;49.66
55486;BME280;71262;-25.924;28.194;2023-11-22T11:46:37;85220.53;;;19.97;49.66
55486;BME280;71262;-25.924;28.194;2023-11-22T11:49:00;85218.09;;;19.78;49.52
55486;BME280;71262;-25.924;28.194;2023-11-22T11:51:27;85214.23;;;19.69;49.63
55486;BME280;71262;-25.924;28.194;2023-11-22T11:53:51;85213.92;;;19.82;49.70
55486;BME280;71262;-25.924;28.194;2023-11-22T11:56:16;85211.08;;;19.59;49.21
55486;BME280;71262;-25.924;28.194;2023-11-22T11:58:42;85206.29;;;20.05;49.20
55486;BME280;71262;-25.924;28.194;2023-11-22T12:01:06;85201.33;;;19.52;49.21
55486;BME280;71262;-25.924;28.194;2023-11-22T12:03:31;85200.54;;;20.04;49.04
55486;BME280;71262;-25.924;28.194;2023-11-22T12:05:56;85195.49;;;20.21;48.72
55486;BME280;71262;-25.924;28.194;2023-11-22T12:08:21;85192.95;;;20.09;48.75
55486;BME280;71262;-25.924;28.194;2023-11-22T12:10:46;85190.48;;;19.77;48.92
55486;BME280;71262;-25.924;28.194;2023-11-22T12:13:11;85181.32;;;19.77;48.91
55486;BME280;71262;-25.924;28.194;2023-11-22T12:15:36;85178.77;;;20.04;48.79
55486;BME280;71262;-25.924;28.194;2023-11-22T12:18:01;85178.95;;;19.95;48.88
55486;BME280;71262;-25.924;28.194;2023-11-22T12:20:26;85172.58;;;19.72;48.77
55486;BME280;71262;-25.924;28.194;2023-11-22T12:22:52;85168.84;;;19.60;48.50
55486;BME280;71262;-25.924;28.194;2023-11-22T12:25:16;85165.93;;;19.74;48.58
55486;BME280;71262;-25.924;28.194;2023-11-22T12:27:42;85165.49;;;19.98;48.52
55486;BME280;71262;-25.924;28.194;2023-11-22T12:30:08;85160.52;;;19.75;48.37
55486;BME280;71262;-25.924;28.194;2023-11-22T12:32:31;85157.42;;;20.08;48.13